sensor_id;sensor_type;location;lat;lon;timestamp;noise_LAeq;noise_LA_min;noise_LA_max;noise_LA01;noise_LA95
40103;Laerm;25814;48.550;9.108;2023-09-19T00:00:34;34.32;32.62;41.54;;
40103;Laerm;25814;48.550;9.108;2023-09-19T00:03:01;33.21;32.11;40.13;;
40103;Laerm;25814;48.550;9.108;2023-09-19T00:05:28;32.66;29.91;38.43;;
40103;Laerm;25814;48.550;9.108;2023-09-19T00:07:56;31.06;29.72;38.57;;
40103;Laerm;25814;48.550;9.108;2023-09-19T00:10:29;31.11;29.82;37.14;;
40103;Laerm;25814;48.550;9.108;2023-09-19T00:12:57;31.23;29.71;38.84;;
40103;Laerm;25814;48.550;9.108;2023-09-19T00:15:27;31.84;30.33;38.10;;
40103;Laerm;25814;48.550;9.108;2023-09-19T00:17:56;32.16;30.13;43.58;;
40103;Laerm;25814;48.550;9.108;2023-09-19T00:20:23;34.91;30.20;45.63;;
40103;Laerm;25814;48.550;9.108;2023-09-19T00:22:50;32.08;29.97;40.96;;
40103;Laerm;25814;48.550;9.108;2023-09-19T00:25:21;31.75;29.90;47.29;;
40103;Laerm;25814;48.550;9.108;2023-09-19T00:27:48;31.64;30.00;41.51;;
40103;Laerm;25814;48.550;9.108;2023-09-19T00:30:16;41.16;30.56;49.12;;
40103;Laerm;25814;48.550;9.108;2023-09-19T00:32:47;35.08;29.81;45.05;;
40103;Laerm;25814;48.550;9.108;2023-09-19T00:35:16;32.71;30.34;40.62;;
40103;Laerm;25814;48.550;9.108;2023-09-19T00:37:43;31.34;29.49;38.70;;
40103;Laerm;25814;48.550;9.108;2023-09-19T00:40:10;31.32;29.85;37.85;;
40103;Laerm;25814;48.550;9.108;2023-09-19T00:42:38;31.99;29.82;40.85;;
40103;Laerm;25814;48.550;9.108;2023-09-19T00:45:06;31.40;29.94;39.37;;
40103;Laerm;25814;48.550;9.108;2023-09-19T00:47:32;31.17;29.74;41.45;;
40103;Laerm;25814;48.550;9.108;2023-09-19T00:49:58;32.05;29.77;40.75;;
40103;Laerm;25814;48.550;9.108;2023-09-19T00:52:25;31.13;29.80;35.24;;
40103;Laerm;25814;48.550;9.108;2023-09-19T00:54:52;31.13;29.92;39.64;;
40103;Laerm;25814;48.550;9.108;2023-09-19T00:57:18;31.50;29.94;37.01;;
40103;Laerm;25814;48.550;9.108;2023-09-19T00:59:45;31.59;29.52;41.12;;
40103;Laerm;25814;48.550;9.108;2023-09-19T01:02:16;31.12;29.84;36.63;;
40103;Laerm;25814;48.550;9.108;2023-09-19T01:04:42;30.80;29.76;37.14;;
40103;Laerm;25814;48.550;9.108;2023-09-19T01:07:08;30.51;29.40;37.31;;
40103;Laerm;25814;48.550;9.108;2023-09-19T01:09:35;31.84;29.69;38.66;;
40103;Laerm;25814;48.550;9.108;2023-09-19T01:12:05;31.55;29.62;34.89;;
40103;Laerm;25814;48.550;9.108;2023-09-19T01:14:54;30.72;29.56;47.10;;
40103;Laerm;25814;48.550;9.108;2023-09-19T01:17:46;30.74;29.56;37.22;;
40103;Laerm;25814;48.550;9.108;2023-09-19T01:20:25;33.24;29.43;44.39;;
40103;Laerm;25814;48.550;9.108;2023-09-19T01:23:05;30.80;29.50;35.86;;
40103;Laerm;25814;48.550;9.108;2023-09-19T01:31:59;30.72;29.63;42.62;;
40103;Laerm;25814;48.550;9.108;2023-09-19T01:34:43;34.60;29.84;43.26;;
40103;Laerm;25814;48.550;9.108;2023-09-19T01:37:12;30.81;29.77;35.32;;
40103;Laerm;25814;48.550;9.108;2023-09-19T01:39:40;30.63;29.68;36.33;;
40103;Laerm;25814;48.550;9.108;2023-09-19T01:45:19;31.73;29.88;37.53;;
40103;Laerm;25814;48.550;9.108;2023-09-19T01:47:46;31.86;29.78;38.49;;
40103;Laerm;25814;48.550;9.108;2023-09-19T01:50:42;32.28;30.02;40.75;;
40103;Laerm;25814;48.550;9.108;2023-09-19T01:53:30;33.04;29.88;42.51;;
40103;Laerm;25814;48.550;9.108;2023-09-19T01:56:00;31.75;29.69;44.05;;
40103;Laerm;25814;48.550;9.108;2023-09-19T01:58:37;30.91;29.89;33.28;;
40103;Laerm;25814;48.550;9.108;2023-09-19T02:01:08;31.35;29.68;35.07;;
40103;Laerm;25814;48.550;9.108;2023-09-19T02:03:39;31.46;29.72;35.75;;
40103;Laerm;25814;48.550;9.108;2023-09-19T02:06:06;31.20;29.85;37.11;;
40103;Laerm;25814;48.550;9.108;2023-09-19T02:08:37;31.57;29.79;34.99;;
40103;Laerm;25814;48.550;9.108;2023-09-19T02:11:03;33.15;30.41;36.60;;
40103;Laerm;25814;48.550;9.108;2023-09-19T02:13:29;30.65;29.69;36.34;;
40103;Laerm;25814;48.550;9.108;2023-09-19T02:15:55;32.61;29.54;45.11;;
40103;Laerm;25814;48.550;9.108;2023-09-19T02:18:21;32.32;29.66;40.56;;
40103;Laerm;25814;48.550;9.108;2023-09-19T02:20:47;30.78;29.69;37.73;;
40103;Laerm;25814;48.550;9.108;2023-09-19T02:23:14;30.78;29.65;35.03;;
40103;Laerm;25814;48.550;9.108;2023-09-19T02:25:41;30.95;29.72;43.11;;
40103;Laerm;25814;48.550;9.108;2023-09-19T02:28:08;30.74;29.61;35.20;;
40103;Laerm;25814;48.550;9.108;2023-09-19T02:30:34;30.77;29.63;35.14;;
40103;Laerm;25814;48.550;9.108;2023-09-19T02:33:01;31.45;30.02;37.72;;
40103;Laerm;25814;48.550;9.108;2023-09-19T02:35:28;30.92;29.81;42.91;;
40103;Laerm;25814;48.550;9.108;2023-09-19T02:38:00;30.94;29.67;40.02;;
40103;Laerm;25814;48.550;9.108;2023-09-19T02:40:26;31.36;30.17;38.97;;
40103;Laerm;25814;48.550;9.108;2023-09-19T02:42:54;30.95;29.87;32.93;;
40103;Laerm;25814;48.550;9.108;2023-09-19T02:45:21;31.46;30.17;39.79;;
40103;Laerm;25814;48.550;9.108;2023-09-19T02:47:48;31.12;30.00;45.26;;
40103;Laerm;25814;48.550;9.108;2023-09-19T02:50:14;32.04;30.17;38.28;;
40103;Laerm;25814;48.550;9.108;2023-09-19T02:52:45;32.24;30.06;42.81;;
40103;Laerm;25814;48.550;9.108;2023-09-19T02:55:15;31.55;30.04;40.86;;
40103;Laerm;25814;48.550;9.108;2023-09-19T02:57:53;31.13;30.08;38.39;;
40103;Laerm;25814;48.550;9.108;2023-09-19T03:00:23;31.64;30.24;34.34;;
40103;Laerm;25814;48.550;9.108;2023-09-19T03:02:58;31.59;30.00;42.34;;
40103;Laerm;25814;48.550;9.108;2023-09-19T03:05:25;31.44;30.37;41.28;;
40103;Laerm;25814;48.550;9.108;2023-09-19T03:07:51;31.32;30.06;33.39;;
40103;Laerm;25814;48.550;9.108;2023-09-19T03:10:19;32.36;30.62;40.63;;
40103;Laerm;25814;48.550;9.108;2023-09-19T03:12:46;31.61;30.43;34.44;;
40103;Laerm;25814;48.550;9.108;2023-09-19T03:15:12;31.72;30.16;37.79;;
40103;Laerm;25814;48.550;9.108;2023-09-19T03:17:43;34.28;30.45;43.46;;
40103;Laerm;25814;48.550;9.108;2023-09-19T03:20:10;32.41;30.69;37.91;;
40103;Laerm;25814;48.550;9.108;2023-09-19T03:22:38;31.76;30.41;34.01;;
40103;Laerm;25814;48.550;9.108;2023-09-19T03:25:06;31.46;30.46;34.83;;
40103;Laerm;25814;48.550;9.108;2023-09-19T03:27:36;31.56;30.45;33.98;;
40103;Laerm;25814;48.550;9.108;2023-09-19T03:30:03;31.84;30.42;37.82;;
40103;Laerm;25814;48.550;9.108;2023-09-19T03:32:46;31.58;30.27;34.76;;
40103;Laerm;25814;48.550;9.108;2023-09-19T03:35:13;32.19;30.43;35.56;;
40103;Laerm;25814;48.550;9.108;2023-09-19T03:37:42;33.71;31.48;37.25;;
40103;Laerm;25814;48.550;9.108;2023-09-19T03:40:09;35.28;31.09;48.52;;
40103;Laerm;25814;48.550;9.108;2023-09-19T03:42:40;35.71;32.14;44.08;;
40103;Laerm;25814;48.550;9.108;2023-09-19T03:45:07;35.01;32.62;40.05;;
40103;Laerm;25814;48.550;9.108;2023-09-19T03:47:36;33.51;31.67;37.18;;
40103;Laerm;25814;48.550;9.108;2023-09-19T03:50:02;34.06;31.30;38.88;;
40103;Laerm;25814;48.550;9.108;2023-09-19T03:52:28;32.96;31.07;40.25;;
40103;Laerm;25814;48.550;9.108;2023-09-19T03:54:54;34.38;31.15;43.72;;
40103;Laerm;25814;48.550;9.108;2023-09-19T03:57:20;36.32;31.34;47.05;;
40103;Laerm;25814;48.550;9.108;2023-09-19T03:59:46;36.79;34.42;49.10;;
40103;Laerm;25814;48.550;9.108;2023-09-19T04:02:13;51.20;34.81;71.33;;
40103;Laerm;25814;48.550;9.108;2023-09-19T04:04:50;42.23;36.66;48.06;;
40103;Laerm;25814;48.550;9.108;2023-09-19T04:07:17;46.00;40.53;51.81;;
40103;Laerm;25814;48.550;9.108;2023-09-19T04:09:44;48.48;43.96;61.95;;
40103;Laerm;25814;48.550;9.108;2023-09-19T04:12:11;48.11;39.34;58.50;;
40103;Laerm;25814;48.550;9.108;2023-09-19T04:14:37;39.66;35.39;48.69;;
40103;Laerm;25814;48.550;9.108;2023-09-19T04:17:04;39.90;33.10;49.83;;
40103;Laerm;25814;48.550;9.108;2023-09-19T04:19:30;37.02;33.17;44.14;;
40103;Laerm;25814;48.550;9.108;2023-09-19T04:21:56;36.23;33.11;46.88;;
40103;Laerm;25814;48.550;9.108;2023-09-19T04:24:22;38.92;33.24;49.75;;
40103;Laerm;25814;48.550;9.108;2023-09-19T04:26:48;38.46;33.11;45.95;;
40103;Laerm;25814;48.550;9.108;2023-09-19T04:29:14;35.59;32.55;43.84;;
40103;Laerm;25814;48.550;9.108;2023-09-19T04:31:40;36.00;33.01;44.55;;
40103;Laerm;25814;48.550;9.108;2023-09-19T04:34:10;36.30;32.51;47.30;;
40103;Laerm;25814;48.550;9.108;2023-09-19T04:36:39;36.02;32.11;53.84;;
40103;Laerm;25814;48.550;9.108;2023-09-19T04:39:05;35.64;32.52;45.41;;
40103;Laerm;25814;48.550;9.108;2023-09-19T04:41:32;35.38;32.31;47.49;;
40103;Laerm;25814;48.550;9.108;2023-09-19T04:43:59;37.34;31.98;52.96;;
40103;Laerm;25814;48.550;9.108;2023-09-19T04:46:25;36.27;32.43;45.12;;
40103;Laerm;25814;48.550;9.108;2023-09-19T04:48:51;34.31;32.30;45.54;;
40103;Laerm;25814;48.550;9.108;2023-09-19T04:51:17;41.02;32.58;59.58;;
40103;Laerm;25814;48.550;9.108;2023-09-19T04:53:44;38.12;32.87;48.91;;
40103;Laerm;25814;48.550;9.108;2023-09-19T04:56:10;41.44;33.41;60.37;;
40103;Laerm;25814;48.550;9.108;2023-09-19T04:58:36;37.35;33.39;47.54;;
40103;Laerm;25814;48.550;9.108;2023-09-19T05:01:02;37.47;33.60;56.12;;
40103;Laerm;25814;48.550;9.108;2023-09-19T05:03:29;35.79;33.19;48.76;;
40103;Laerm;25814;48.550;9.108;2023-09-19T05:05:55;37.26;33.61;54.62;;
40103;Laerm;25814;48.550;9.108;2023-09-19T05:08:21;40.50;34.39;60.33;;
40103;Laerm;25814;48.550;9.108;2023-09-19T05:10:47;38.41;33.44;53.95;;
40103;Laerm;25814;48.550;9.108;2023-09-19T05:13:14;46.63;33.94;62.41;;
40103;Laerm;25814;48.550;9.108;2023-09-19T05:15:40;47.90;34.04;64.84;;
40103;Laerm;25814;48.550;9.108;2023-09-19T05:18:06;47.36;33.58;71.05;;
40103;Laerm;25814;48.550;9.108;2023-09-19T05:20:32;39.48;33.76;59.41;;
40103;Laerm;25814;48.550;9.108;2023-09-19T05:23:02;43.31;33.82;62.65;;
40103;Laerm;25814;48.550;9.108;2023-09-19T05:25:34;38.94;33.32;55.36;;
40103;Laerm;25814;48.550;9.108;2023-09-19T05:28:08;39.00;33.90;59.08;;
40103;Laerm;25814;48.550;9.108;2023-09-19T05:30:37;41.84;33.77;57.67;;
40103;Laerm;25814;48.550;9.108;2023-09-19T05:33:04;41.46;35.00;58.95;;
40103;Laerm;25814;48.550;9.108;2023-09-19T05:35:31;37.78;34.16;47.02;;
40103;Laerm;25814;48.550;9.108;2023-09-19T05:37:57;37.72;33.93;50.91;;
40103;Laerm;25814;48.550;9.108;2023-09-19T05:40:24;38.44;34.12;52.27;;
40103;Laerm;25814;48.550;9.108;2023-09-19T05:42:51;38.33;33.78;53.18;;
40103;Laerm;25814;48.550;9.108;2023-09-19T05:45:17;38.63;34.03;54.41;;
40103;Laerm;25814;48.550;9.108;2023-09-19T05:47:50;37.00;33.09;53.15;;
40103;Laerm;25814;48.550;9.108;2023-09-19T05:50:17;37.32;33.05;53.95;;
40103;Laerm;25814;48.550;9.108;2023-09-19T05:52:43;37.05;33.07;53.95;;
40103;Laerm;25814;48.550;9.108;2023-09-19T05:55:17;36.63;33.67;50.79;;
40103;Laerm;25814;48.550;9.108;2023-09-19T05:57:43;36.06;33.25;57.74;;
40103;Laerm;25814;48.550;9.108;2023-09-19T06:00:09;36.22;33.07;53.42;;
40103;Laerm;25814;48.550;9.108;2023-09-19T06:02:39;41.73;32.30;63.51;;
40103;Laerm;25814;48.550;9.108;2023-09-19T06:05:06;39.44;32.32;59.74;;
40103;Laerm;25814;48.550;9.108;2023-09-19T06:07:32;36.05;31.54;56.17;;
40103;Laerm;25814;48.550;9.108;2023-09-19T06:10:05;37.78;32.11;51.47;;
40103;Laerm;25814;48.550;9.108;2023-09-19T06:12:42;38.41;32.66;57.46;;
40103;Laerm;25814;48.550;9.108;2023-09-19T06:15:12;36.75;31.99;54.94;;
40103;Laerm;25814;48.550;9.108;2023-09-19T06:17:54;36.47;31.94;50.29;;
40103;Laerm;25814;48.550;9.108;2023-09-19T06:20:21;39.62;31.64;53.24;;
40103;Laerm;25814;48.550;9.108;2023-09-19T06:22:49;39.18;32.88;53.69;;
40103;Laerm;25814;48.550;9.108;2023-09-19T06:25:16;39.16;32.26;52.93;;
40103;Laerm;25814;48.550;9.108;2023-09-19T06:27:46;52.81;33.44;79.26;;
40103;Laerm;25814;48.550;9.108;2023-09-19T06:30:13;36.61;32.91;48.43;;
40103;Laerm;25814;48.550;9.108;2023-09-19T06:32:40;52.12;32.52;78.77;;
40103;Laerm;25814;48.550;9.108;2023-09-19T06:35:14;49.50;33.87;74.01;;
40103;Laerm;25814;48.550;9.108;2023-09-19T06:37:43;40.81;32.94;51.73;;
40103;Laerm;25814;48.550;9.108;2023-09-19T06:40:13;61.64;33.51;72.63;;
40103;Laerm;25814;48.550;9.108;2023-09-19T06:42:49;55.41;33.46;69.81;;
40103;Laerm;25814;48.550;9.108;2023-09-19T06:45:16;48.17;37.98;62.99;;
40103;Laerm;25814;48.550;9.108;2023-09-19T06:47:52;56.50;31.58;81.77;;
40103;Laerm;25814;48.550;9.108;2023-09-19T06:50:23;35.21;31.02;50.99;;
40103;Laerm;25814;48.550;9.108;2023-09-19T06:52:52;51.06;31.85;74.32;;
40103;Laerm;25814;48.550;9.108;2023-09-19T06:55:21;40.35;31.96;58.83;;
40103;Laerm;25814;48.550;9.108;2023-09-19T06:57:50;40.71;31.60;58.11;;
40103;Laerm;25814;48.550;9.108;2023-09-19T07:00:17;41.71;31.60;62.74;;
40103;Laerm;25814;48.550;9.108;2023-09-19T07:02:44;36.59;32.54;58.72;;
40103;Laerm;25814;48.550;9.108;2023-09-19T07:05:10;34.99;31.50;48.18;;
40103;Laerm;25814;48.550;9.108;2023-09-19T07:07:37;56.16;32.98;70.70;;
40103;Laerm;25814;48.550;9.108;2023-09-19T07:10:03;52.97;41.73;60.33;;
40103;Laerm;25814;48.550;9.108;2023-09-19T07:12:35;50.22;37.78;71.94;;
40103;Laerm;25814;48.550;9.108;2023-09-19T07:15:02;48.59;30.83;57.94;;
40103;Laerm;25814;48.550;9.108;2023-09-19T07:17:28;34.02;30.72;42.77;;
40103;Laerm;25814;48.550;9.108;2023-09-19T07:19:55;35.49;32.28;45.73;;
40103;Laerm;25814;48.550;9.108;2023-09-19T07:22:21;35.95;32.54;44.19;;
40103;Laerm;25814;48.550;9.108;2023-09-19T07:24:49;34.82;32.40;41.87;;
40103;Laerm;25814;48.550;9.108;2023-09-19T07:27:15;36.50;32.79;57.96;;
40103;Laerm;25814;48.550;9.108;2023-09-19T07:29:41;35.08;32.44;45.18;;
40103;Laerm;25814;48.550;9.108;2023-09-19T07:32:07;34.23;31.99;38.44;;
40103;Laerm;25814;48.550;9.108;2023-09-19T07:34:35;34.70;30.57;43.30;;
40103;Laerm;25814;48.550;9.108;2023-09-19T07:37:01;33.25;30.44;42.12;;
40103;Laerm;25814;48.550;9.108;2023-09-19T07:39:28;33.96;30.61;48.47;;
40103;Laerm;25814;48.550;9.108;2023-09-19T07:41:55;35.96;31.06;46.60;;
40103;Laerm;25814;48.550;9.108;2023-09-19T07:44:21;34.77;30.89;47.18;;
40103;Laerm;25814;48.550;9.108;2023-09-19T07:46:48;53.16;31.49;77.76;;
40103;Laerm;25814;48.550;9.108;2023-09-19T07:49:16;35.93;31.49;51.13;;
40103;Laerm;25814;48.550;9.108;2023-09-19T07:51:43;34.53;30.60;48.50;;
40103;Laerm;25814;48.550;9.108;2023-09-19T07:54:12;34.35;30.34;54.78;;
40103;Laerm;25814;48.550;9.108;2023-09-19T07:56:40;39.88;30.68;52.83;;
40103;Laerm;25814;48.550;9.108;2023-09-19T07:59:06;35.48;30.35;49.79;;
40103;Laerm;25814;48.550;9.108;2023-09-19T08:01:32;32.93;29.99;44.44;;
40103;Laerm;25814;48.550;9.108;2023-09-19T08:03:58;35.22;30.84;52.74;;
40103;Laerm;25814;48.550;9.108;2023-09-19T08:06:24;39.61;31.12;59.42;;
40103;Laerm;25814;48.550;9.108;2023-09-19T08:08:54;38.28;32.15;54.12;;
40103;Laerm;25814;48.550;9.108;2023-09-19T08:11:22;39.77;33.33;54.09;;
40103;Laerm;25814;48.550;9.108;2023-09-19T08:13:50;36.51;30.61;49.07;;
40103;Laerm;25814;48.550;9.108;2023-09-19T08:16:16;54.38;31.35;77.73;;
40103;Laerm;25814;48.550;9.108;2023-09-19T08:18:48;38.75;30.64;59.25;;
40103;Laerm;25814;48.550;9.108;2023-09-19T08:21:18;39.18;30.93;52.60;;
40103;Laerm;25814;48.550;9.108;2023-09-19T08:23:44;40.82;30.81;52.89;;
40103;Laerm;25814;48.550;9.108;2023-09-19T08:26:11;39.15;30.62;60.98;;
40103;Laerm;25814;48.550;9.108;2023-09-19T08:28:37;38.31;31.68;59.83;;
40103;Laerm;25814;48.550;9.108;2023-09-19T08:31:07;43.80;30.83;54.66;;
40103;Laerm;25814;48.550;9.108;2023-09-19T08:33:35;39.37;31.17;53.96;;
40103;Laerm;25814;48.550;9.108;2023-09-19T08:36:06;41.89;31.70;54.40;;
40103;Laerm;25814;48.550;9.108;2023-09-19T08:38:35;41.73;31.66;53.09;;
40103;Laerm;25814;48.550;9.108;2023-09-19T08:41:07;41.48;32.14;54.12;;
40103;Laerm;25814;48.550;9.108;2023-09-19T08:43:34;38.19;31.93;52.66;;
40103;Laerm;25814;48.550;9.108;2023-09-19T08:46:11;39.11;31.68;56.05;;
40103;Laerm;25814;48.550;9.108;2023-09-19T08:49:01;47.60;32.46;63.43;;
40103;Laerm;25814;48.550;9.108;2023-09-19T08:51:42;42.78;32.20;55.97;;
40103;Laerm;25814;48.550;9.108;2023-09-19T08:54:35;40.85;32.44;48.75;;
40103;Laerm;25814;48.550;9.108;2023-09-19T08:57:07;38.96;32.72;52.72;;
40103;Laerm;25814;48.550;9.108;2023-09-19T08:59:38;38.15;31.35;53.83;;
40103;Laerm;25814;48.550;9.108;2023-09-19T09:02:12;38.70;31.38;52.82;;
40103;Laerm;25814;48.550;9.108;2023-09-19T09:04:43;42.61;31.78;53.39;;
40103;Laerm;25814;48.550;9.108;2023-09-19T09:07:14;40.84;32.16;53.91;;
40103;Laerm;25814;48.550;9.108;2023-09-19T09:09:42;36.35;31.79;42.47;;
40103;Laerm;25814;48.550;9.108;2023-09-19T09:12:12;36.61;31.91;46.90;;
40103;Laerm;25814;48.550;9.108;2023-09-19T09:14:46;41.65;32.26;55.09;;
40103;Laerm;25814;48.550;9.108;2023-09-19T09:17:16;35.93;31.89;42.76;;
40103;Laerm;25814;48.550;9.108;2023-09-19T09:19:48;41.81;34.18;48.43;;
40103;Laerm;25814;48.550;9.108;2023-09-19T09:22:14;37.44;31.62;46.30;;
40103;Laerm;25814;48.550;9.108;2023-09-19T09:24:56;42.35;32.49;57.25;;
40103;Laerm;25814;48.550;9.108;2023-09-19T09:27:27;43.20;32.36;57.05;;
40103;Laerm;25814;48.550;9.108;2023-09-19T09:29:53;39.19;33.26;49.25;;
40103;Laerm;25814;48.550;9.108;2023-09-19T09:32:30;40.71;33.05;52.97;;
40103;Laerm;25814;48.550;9.108;2023-09-19T09:35:06;44.12;35.48;52.57;;
40103;Laerm;25814;48.550;9.108;2023-09-19T09:37:35;39.92;33.83;46.63;;
40103;Laerm;25814;48.550;9.108;2023-09-19T09:40:04;43.65;32.07;55.76;;
40103;Laerm;25814;48.550;9.108;2023-09-19T09:42:40;37.76;32.45;45.74;;
40103;Laerm;25814;48.550;9.108;2023-09-19T09:45:21;37.24;32.00;45.53;;
40103;Laerm;25814;48.550;9.108;2023-09-19T09:48:00;38.18;32.06;52.96;;
40103;Laerm;25814;48.550;9.108;2023-09-19T09:50:47;36.67;32.61;44.42;;
40103;Laerm;25814;48.550;9.108;2023-09-19T09:53:43;41.37;34.00;51.48;;
40103;Laerm;25814;48.550;9.108;2023-09-19T09:56:11;38.54;34.06;46.36;;
40103;Laerm;25814;48.550;9.108;2023-09-19T10:01:14;42.37;34.33;49.59;;
40103;Laerm;25814;48.550;9.108;2023-09-19T10:03:42;40.57;34.22;47.13;;
40103;Laerm;25814;48.550;9.108;2023-09-19T10:06:16;38.20;33.02;46.48;;
40103;Laerm;25814;48.550;9.108;2023-09-19T10:09:05;39.66;33.00;52.19;;
40103;Laerm;25814;48.550;9.108;2023-09-19T10:11:47;41.51;30.47;67.21;;
40103;Laerm;25814;48.550;9.108;2023-09-19T10:14:27;52.78;30.27;74.34;;
40103;Laerm;25814;48.550;9.108;2023-09-19T10:16:59;35.03;31.29;39.38;;
40103;Laerm;25814;48.550;9.108;2023-09-19T10:19:37;33.55;30.70;41.65;;
40103;Laerm;25814;48.550;9.108;2023-09-19T10:22:06;33.73;30.80;41.62;;
40103;Laerm;25814;48.550;9.108;2023-09-19T10:24:36;37.53;31.59;47.77;;
40103;Laerm;25814;48.550;9.108;2023-09-19T10:27:06;35.70;32.51;44.77;;
40103;Laerm;25814;48.550;9.108;2023-09-19T10:29:39;38.60;33.18;50.27;;
40103;Laerm;25814;48.550;9.108;2023-09-19T10:32:06;37.69;31.61;52.60;;
40103;Laerm;25814;48.550;9.108;2023-09-19T10:34:35;37.45;31.47;52.85;;
40103;Laerm;25814;48.550;9.108;2023-09-19T10:37:05;40.36;33.32;57.68;;
40103;Laerm;25814;48.550;9.108;2023-09-19T10:39:36;36.75;32.30;49.61;;
40103;Laerm;25814;48.550;9.108;2023-09-19T10:42:07;40.28;32.81;51.95;;
40103;Laerm;25814;48.550;9.108;2023-09-19T10:44:38;38.21;31.44;52.46;;
40103;Laerm;25814;48.550;9.108;2023-09-19T10:47:09;39.18;33.11;52.35;;
40103;Laerm;25814;48.550;9.108;2023-09-19T10:49:44;42.38;33.32;67.09;;
40103;Laerm;25814;48.550;9.108;2023-09-19T10:52:15;35.73;31.45;49.26;;
40103;Laerm;25814;48.550;9.108;2023-09-19T10:54:50;39.40;32.15;55.40;;
40103;Laerm;25814;48.550;9.108;2023-09-19T10:57:24;38.65;31.74;53.94;;
40103;Laerm;25814;48.550;9.108;2023-09-19T11:00:08;35.65;31.56;54.27;;
40103;Laerm;25814;48.550;9.108;2023-09-19T11:05:41;39.20;32.38;51.21;;
40103;Laerm;25814;48.550;9.108;2023-09-19T11:08:08;36.25;32.01;51.72;;
40103;Laerm;25814;48.550;9.108;2023-09-19T11:10:49;37.96;32.30;50.48;;
40103;Laerm;25814;48.550;9.108;2023-09-19T11:13:29;37.63;31.68;50.56;;
40103;Laerm;25814;48.550;9.108;2023-09-19T11:16:04;35.83;32.02;50.60;;
40103;Laerm;25814;48.550;9.108;2023-09-19T11:21:38;40.68;33.73;51.39;;
40103;Laerm;25814;48.550;9.108;2023-09-19T11:26:42;45.23;35.03;61.30;;
40103;Laerm;25814;48.550;9.108;2023-09-19T11:29:29;37.87;30.69;52.57;;
40103;Laerm;25814;48.550;9.108;2023-09-19T11:31:59;35.91;32.01;48.39;;
40103;Laerm;25814;48.550;9.108;2023-09-19T11:34:43;35.27;31.32;48.56;;
40103;Laerm;25814;48.550;9.108;2023-09-19T11:40:05;37.85;32.51;58.49;;
40103;Laerm;25814;48.550;9.108;2023-09-19T11:42:46;43.55;32.15;61.10;;
40103;Laerm;25814;48.550;9.108;2023-09-19T11:48:18;40.07;31.93;52.24;;
40103;Laerm;25814;48.550;9.108;2023-09-19T11:50:45;44.31;33.60;54.49;;
40103;Laerm;25814;48.550;9.108;2023-09-19T11:53:13;36.96;32.52;47.66;;
40103;Laerm;25814;48.550;9.108;2023-09-19T11:55:41;38.44;32.24;50.27;;
40103;Laerm;25814;48.550;9.108;2023-09-19T11:58:12;43.46;36.12;52.57;;
40103;Laerm;25814;48.550;9.108;2023-09-19T12:00:39;41.39;34.51;60.36;;
40103;Laerm;25814;48.550;9.108;2023-09-19T12:03:11;43.01;35.67;52.00;;
40103;Laerm;25814;48.550;9.108;2023-09-19T12:05:40;40.78;32.39;55.48;;
40103;Laerm;25814;48.550;9.108;2023-09-19T12:08:07;38.10;32.40;46.25;;
40103;Laerm;25814;48.550;9.108;2023-09-19T12:10:48;41.95;32.08;53.28;;
40103;Laerm;25814;48.550;9.108;2023-09-19T12:13:21;40.37;33.66;54.64;;
40103;Laerm;25814;48.550;9.108;2023-09-19T12:15:47;42.54;34.24;54.46;;
40103;Laerm;25814;48.550;9.108;2023-09-19T12:18:27;40.05;32.24;56.59;;
40103;Laerm;25814;48.550;9.108;2023-09-19T12:20:53;45.00;32.56;53.50;;
40103;Laerm;25814;48.550;9.108;2023-09-19T12:23:20;40.15;32.91;53.65;;
40103;Laerm;25814;48.550;9.108;2023-09-19T12:25:46;42.64;33.25;52.34;;
40103;Laerm;25814;48.550;9.108;2023-09-19T12:28:15;43.25;34.35;55.96;;
40103;Laerm;25814;48.550;9.108;2023-09-19T12:30:42;52.99;35.52;76.67;;
40103;Laerm;25814;48.550;9.108;2023-09-19T12:33:19;39.60;32.45;53.53;;
40103;Laerm;25814;48.550;9.108;2023-09-19T12:35:46;45.60;34.03;65.46;;
40103;Laerm;25814;48.550;9.108;2023-09-19T12:38:28;41.72;33.56;57.56;;
40103;Laerm;25814;48.550;9.108;2023-09-19T12:40:57;41.23;33.88;53.59;;
40103;Laerm;25814;48.550;9.108;2023-09-19T12:43:26;54.29;33.05;74.92;;
40103;Laerm;25814;48.550;9.108;2023-09-19T12:45:54;40.70;33.73;55.01;;
40103;Laerm;25814;48.550;9.108;2023-09-19T12:48:23;42.12;34.57;51.90;;
40103;Laerm;25814;48.550;9.108;2023-09-19T12:51:06;40.08;33.47;54.45;;
40103;Laerm;25814;48.550;9.108;2023-09-19T12:53:43;42.63;33.95;53.62;;
40103;Laerm;25814;48.550;9.108;2023-09-19T12:56:17;42.44;32.14;66.40;;
40103;Laerm;25814;48.550;9.108;2023-09-19T12:58:55;38.75;32.17;52.96;;
40103;Laerm;25814;48.550;9.108;2023-09-19T13:01:23;40.72;32.72;57.44;;
40103;Laerm;25814;48.550;9.108;2023-09-19T13:04:19;43.37;33.27;55.78;;
40103;Laerm;25814;48.550;9.108;2023-09-19T13:06:50;42.38;34.20;51.76;;
40103;Laerm;25814;48.550;9.108;2023-09-19T13:09:22;41.96;32.19;58.82;;
40103;Laerm;25814;48.550;9.108;2023-09-19T13:11:50;38.04;31.85;55.91;;
40103;Laerm;25814;48.550;9.108;2023-09-19T13:14:23;37.18;32.35;48.22;;
40103;Laerm;25814;48.550;9.108;2023-09-19T13:17:06;37.32;32.69;47.18;;
40103;Laerm;25814;48.550;9.108;2023-09-19T13:19:45;40.29;33.87;60.54;;
40103;Laerm;25814;48.550;9.108;2023-09-19T13:22:39;43.91;34.80;53.07;;
40103;Laerm;25814;48.550;9.108;2023-09-19T13:25:16;43.43;34.13;55.02;;
40103;Laerm;25814;48.550;9.108;2023-09-19T13:27:50;52.02;33.51;75.41;;
40103;Laerm;25814;48.550;9.108;2023-09-19T13:30:23;42.50;32.18;57.83;;
40103;Laerm;25814;48.550;9.108;2023-09-19T13:32:51;37.68;31.47;57.17;;
40103;Laerm;25814;48.550;9.108;2023-09-19T13:35:18;38.97;31.71;49.01;;
40103;Laerm;25814;48.550;9.108;2023-09-19T13:37:47;48.72;37.10;67.13;;
40103;Laerm;25814;48.550;9.108;2023-09-19T13:40:15;51.49;33.26;77.46;;
40103;Laerm;25814;48.550;9.108;2023-09-19T13:42:42;51.89;32.63;73.48;;
40103;Laerm;25814;48.550;9.108;2023-09-19T13:45:09;56.74;32.72;77.71;;
40103;Laerm;25814;48.550;9.108;2023-09-19T13:47:38;46.57;32.85;71.72;;
40103;Laerm;25814;48.550;9.108;2023-09-19T13:50:05;46.05;33.52;62.49;;
40103;Laerm;25814;48.550;9.108;2023-09-19T13:52:31;55.68;33.84;77.83;;
40103;Laerm;25814;48.550;9.108;2023-09-19T13:54:58;59.28;31.69;77.68;;
40103;Laerm;25814;48.550;9.108;2023-09-19T13:57:27;39.10;31.82;59.68;;
40103;Laerm;25814;48.550;9.108;2023-09-19T13:59:55;41.79;33.06;53.74;;
40103;Laerm;25814;48.550;9.108;2023-09-19T14:02:22;43.61;35.85;53.89;;
40103;Laerm;25814;48.550;9.108;2023-09-19T14:04:49;38.35;33.07;49.34;;
40103;Laerm;25814;48.550;9.108;2023-09-19T14:07:16;41.28;34.28;51.48;;
40103;Laerm;25814;48.550;9.108;2023-09-19T14:09:43;40.70;31.98;50.81;;
40103;Laerm;25814;48.550;9.108;2023-09-19T14:12:09;43.53;35.40;52.05;;
40103;Laerm;25814;48.550;9.108;2023-09-19T14:14:36;43.12;34.69;68.91;;
40103;Laerm;25814;48.550;9.108;2023-09-19T14:17:05;37.80;32.33;55.05;;
40103;Laerm;25814;48.550;9.108;2023-09-19T14:19:33;56.10;32.37;73.62;;
40103;Laerm;25814;48.550;9.108;2023-09-19T14:22:00;36.92;31.80;49.56;;
40103;Laerm;25814;48.550;9.108;2023-09-19T14:24:33;38.03;32.77;50.25;;
40103;Laerm;25814;48.550;9.108;2023-09-19T14:26:59;36.10;31.72;51.22;;